createdAt,value
2018-12-12T00:02:16.257Z,19.00
2018-12-12T00:04:45.745Z,18.43
2018-12-12T00:07:15.049Z,18.07
2018-12-12T00:09:44.270Z,20.43
2018-12-12T00:12:13.497Z,20.13
2018-12-12T00:14:42.725Z,19.77
2018-12-12T00:17:12.071Z,21.00
2018-12-12T00:19:41.289Z,21.47
2018-12-12T00:22:10.539Z,21.23
2018-12-12T00:24:39.783Z,20.37
2018-12-12T00:27:09.023Z,24.83
2018-12-12T00:29:38.287Z,22.00
2018-12-12T00:32:07.518Z,25.20
2018-12-12T00:34:36.725Z,25.47
2018-12-12T00:37:06.013Z,21.73
2018-12-12T00:39:35.345Z,20.90
2018-12-12T00:42:04.660Z,21.20
2018-12-12T00:44:33.939Z,25.90
2018-12-12T00:47:03.194Z,23.10
2018-12-12T00:49:32.401Z,23.37
2018-12-12T00:52:01.667Z,20.80
2018-12-12T00:54:31.130Z,21.97
2018-12-12T00:57:00.341Z,28.07
2018-12-12T00:59:29.597Z,22.27
2018-12-12T01:01:58.898Z,22.07
2018-12-12T01:04:28.149Z,22.73
2018-12-12T01:06:57.539Z,24.90
2018-12-12T01:09:26.788Z,24.40
2018-12-12T01:12:03.749Z,24.00
2018-12-12T01:14:33.028Z,26.90
2018-12-12T01:17:02.272Z,25.70
2018-12-12T01:19:31.524Z,22.77
2018-12-12T01:22:00.779Z,25.20
2018-12-12T01:24:30.159Z,26.43
2018-12-12T01:26:59.412Z,28.87
2018-12-12T01:29:28.756Z,27.03
2018-12-12T01:31:58.177Z,27.60
2018-12-12T01:34:27.417Z,30.67
2018-12-12T01:36:56.864Z,27.50
2018-12-12T01:39:26.116Z,30.03
2018-12-12T01:41:55.315Z,25.83
2018-12-12T01:44:24.525Z,30.37
2018-12-12T01:46:53.729Z,29.43
2018-12-12T01:49:23.149Z,27.40
2018-12-12T01:51:52.347Z,32.00
2018-12-12T01:54:21.671Z,34.30
2018-12-12T01:56:50.896Z,30.27
2018-12-12T01:59:20.181Z,32.17
2018-12-12T02:01:49.406Z,32.00
2018-12-12T02:04:18.797Z,27.10
2018-12-12T02:06:48.023Z,33.33
2018-12-12T02:09:17.270Z,30.47
2018-12-12T02:11:46.686Z,26.77
2018-12-12T02:17:20.058Z,28.17
2018-12-12T02:19:49.588Z,27.70
2018-12-12T02:22:19.024Z,29.20
2018-12-12T02:24:48.351Z,31.47
2018-12-12T02:27:17.670Z,28.30
2018-12-12T02:29:47.110Z,32.60
2018-12-12T02:32:17.388Z,32.13
2018-12-12T02:34:46.975Z,27.17
2018-12-12T02:40:10.589Z,30.27
2018-12-12T02:42:39.806Z,28.00
2018-12-12T02:45:09.099Z,28.13
2018-12-12T02:47:38.328Z,35.27
2018-12-12T02:50:07.707Z,30.83
2018-12-12T02:52:36.899Z,31.90
2018-12-12T02:55:07.230Z,27.73
2018-12-12T02:57:36.489Z,31.87
2018-12-12T03:00:08.337Z,30.93
2018-12-12T03:02:38.293Z,30.13
2018-12-12T03:05:07.717Z,34.00
2018-12-12T03:07:37.439Z,27.60
2018-12-12T03:10:06.950Z,34.13
2018-12-12T03:12:36.177Z,33.53
2018-12-12T03:15:06.550Z,28.77
2018-12-12T03:17:35.898Z,32.57
2018-12-12T03:20:05.901Z,29.90
2018-12-12T03:22:35.231Z,33.57
2018-12-12T03:25:04.751Z,37.73
2018-12-12T03:27:34.017Z,40.47
2018-12-12T03:30:03.555Z,36.03
2018-12-12T03:32:32.889Z,36.30
2018-12-12T03:35:02.223Z,38.43
2018-12-12T03:37:31.459Z,43.87
2018-12-12T03:40:01.059Z,41.67
2018-12-12T03:42:30.735Z,37.90
2018-12-12T03:45:00.526Z,39.23
2018-12-12T03:47:29.913Z,35.80
2018-12-12T03:49:59.182Z,39.57
2018-12-12T03:52:28.417Z,38.87
2018-12-12T03:54:57.811Z,41.70
2018-12-12T03:57:27.052Z,36.43
2018-12-12T03:59:56.404Z,39.83
2018-12-12T04:02:25.737Z,41.47
2018-12-12T04:04:55.045Z,40.57
2018-12-12T04:07:24.394Z,35.43
2018-12-12T04:09:53.643Z,34.40
2018-12-12T04:15:26.851Z,40.93
2018-12-12T04:17:56.205Z,36.70
2018-12-12T04:20:25.553Z,34.13
2018-12-12T04:22:58.632Z,37.03
2018-12-12T04:25:28.273Z,42.83
2018-12-12T04:27:57.605Z,43.60
2018-12-12T04:30:27.026Z,41.33
2018-12-12T04:32:56.269Z,42.53
2018-12-12T04:35:25.772Z,41.03
2018-12-12T04:37:55.404Z,38.53
2018-12-12T04:40:25.392Z,43.83
2018-12-12T04:42:54.611Z,41.87
2018-12-12T04:45:24.038Z,40.30
2018-12-12T04:47:53.272Z,40.00
2018-12-12T04:50:22.493Z,37.23
2018-12-12T04:52:51.949Z,39.67
2018-12-12T04:55:21.518Z,41.60
2018-12-12T04:57:50.852Z,41.77
2018-12-12T05:00:20.101Z,39.07
2018-12-12T05:02:50.248Z,42.13
2018-12-12T05:05:19.486Z,37.60
2018-12-12T05:07:48.802Z,38.33
2018-12-12T05:10:18.446Z,38.13
2018-12-12T05:12:47.712Z,37.47
2018-12-12T05:15:17.306Z,39.33
2018-12-12T05:17:46.578Z,37.90
2018-12-12T05:20:15.931Z,36.77
2018-12-12T05:22:45.123Z,33.07
2018-12-12T05:25:14.394Z,33.30
2018-12-12T05:27:43.582Z,30.60
2018-12-12T05:30:12.770Z,32.33
2018-12-12T05:32:41.973Z,33.00
2018-12-12T05:35:11.161Z,32.33
2018-12-12T05:37:40.366Z,32.40
2018-12-12T05:40:10.098Z,29.70
2018-12-12T05:42:39.505Z,28.67
2018-12-12T05:45:08.958Z,33.00
2018-12-12T05:47:38.135Z,30.77
2018-12-12T05:50:07.500Z,32.40
2018-12-12T05:52:36.682Z,33.90
2018-12-12T05:55:06.843Z,31.80
2018-12-12T05:57:36.042Z,33.30
2018-12-12T06:00:06.831Z,31.93
2018-12-12T06:02:36.002Z,31.63
2018-12-12T06:05:05.436Z,33.87
2018-12-12T06:07:34.901Z,28.57
2018-12-12T06:10:04.833Z,31.37
2018-12-12T06:12:35.189Z,30.47
2018-12-12T06:15:05.000Z,31.83
2018-12-12T06:17:34.223Z,30.33
2018-12-12T06:20:04.212Z,29.17
2018-12-12T06:22:37.587Z,35.43
2018-12-12T06:25:05.120Z,28.10
2018-12-12T06:27:34.446Z,31.03
2018-12-12T06:30:03.750Z,31.37
2018-12-12T06:32:32.985Z,33.20
2018-12-12T06:35:02.198Z,31.43
2018-12-12T06:37:31.425Z,38.03
2018-12-12T06:40:00.645Z,33.97
2018-12-12T06:42:29.932Z,38.30
2018-12-12T06:44:59.285Z,32.53
2018-12-12T06:47:28.641Z,29.73
2018-12-12T06:49:57.985Z,30.27
2018-12-12T06:52:27.212Z,37.83
2018-12-12T06:54:56.526Z,37.23
2018-12-12T06:57:25.878Z,34.80
2018-12-12T06:59:55.113Z,33.00
2018-12-12T07:02:24.325Z,31.67
2018-12-12T07:04:54.439Z,30.70
2018-12-12T07:07:23.962Z,26.20
2018-12-12T07:09:53.182Z,27.77
2018-12-12T07:12:22.423Z,24.27
2018-12-12T07:14:51.641Z,26.87
2018-12-12T07:17:20.861Z,25.23
2018-12-12T07:19:50.081Z,26.40
2018-12-12T07:22:19.313Z,23.50
2018-12-12T07:24:48.530Z,23.97
2018-12-12T07:27:17.858Z,21.83
2018-12-12T07:29:47.589Z,24.27
2018-12-12T07:32:16.864Z,25.53
2018-12-12T07:34:46.089Z,22.57
2018-12-12T07:37:15.379Z,22.00
2018-12-12T07:39:44.585Z,28.53
2018-12-12T07:42:14.342Z,20.00
2018-12-12T07:44:43.548Z,22.87
2018-12-12T07:47:12.752Z,24.10
2018-12-12T07:49:42.066Z,23.17
2018-12-12T07:52:12.295Z,21.93
2018-12-12T07:54:41.668Z,21.03
2018-12-12T07:57:10.890Z,18.77
2018-12-12T07:59:40.118Z,21.43
2018-12-12T08:02:09.361Z,23.00
2018-12-12T08:04:38.585Z,21.77
2018-12-12T08:07:07.835Z,20.43
2018-12-12T08:09:37.057Z,21.43
2018-12-12T08:12:06.377Z,20.73
2018-12-12T08:14:35.573Z,22.50
2018-12-12T08:17:05.023Z,21.53
2018-12-12T08:19:34.201Z,18.93
2018-12-12T08:22:03.388Z,19.73
2018-12-12T08:24:32.593Z,19.60
2018-12-12T08:27:01.765Z,19.07
2018-12-12T08:29:31.028Z,19.30
2018-12-12T08:32:00.423Z,23.03
2018-12-12T08:34:29.601Z,22.07
2018-12-12T08:36:58.799Z,19.03
2018-12-12T08:39:27.973Z,21.00
2018-12-12T08:41:57.157Z,17.97
2018-12-12T08:44:26.370Z,23.33
2018-12-12T08:46:55.759Z,20.43
2018-12-12T08:49:24.981Z,20.47
2018-12-12T08:51:54.161Z,17.30
2018-12-12T08:54:23.341Z,18.17
2018-12-12T08:56:52.911Z,19.30
2018-12-12T08:59:22.083Z,17.50
2018-12-12T09:01:51.349Z,22.07
2018-12-12T09:04:20.533Z,19.97
2018-12-12T09:06:49.888Z,17.00
2018-12-12T09:09:19.142Z,15.70
2018-12-12T09:11:48.392Z,16.10
2018-12-12T09:14:17.565Z,19.70
2018-12-12T09:16:46.778Z,19.40
2018-12-12T09:19:15.950Z,15.73
2018-12-12T09:21:45.234Z,20.80
2018-12-12T09:24:14.447Z,18.60
2018-12-12T09:26:43.639Z,18.43
2018-12-12T09:29:12.823Z,19.97
2018-12-12T09:31:42.009Z,21.63
2018-12-12T09:34:11.215Z,21.77
2018-12-12T09:36:40.123Z,17.63
2018-12-12T09:39:09.318Z,20.97
2018-12-12T09:41:38.498Z,15.40
2018-12-12T09:44:08.027Z,19.20
2018-12-12T09:46:37.187Z,20.60
2018-12-12T09:49:05.947Z,18.80
2018-12-12T09:51:35.137Z,19.33
2018-12-12T09:54:04.406Z,17.43
2018-12-12T09:56:33.606Z,20.27
2018-12-12T09:59:02.788Z,16.00
2018-12-12T10:01:32.047Z,16.70
2018-12-12T10:04:01.268Z,21.40
2018-12-12T10:06:30.568Z,17.27
2018-12-12T10:08:59.770Z,23.03
2018-12-12T10:11:29.049Z,18.30
2018-12-12T10:13:58.353Z,22.97
2018-12-12T10:16:27.540Z,17.80
2018-12-12T10:18:56.815Z,18.83
2018-12-12T10:21:26.083Z,21.70
2018-12-12T10:23:55.287Z,16.13
2018-12-12T10:26:24.467Z,17.13
2018-12-12T10:28:54.337Z,18.47
2018-12-12T10:31:23.603Z,16.60
2018-12-12T10:33:52.786Z,13.93
2018-12-12T10:36:22.063Z,14.80
2018-12-12T10:38:51.246Z,16.30
2018-12-12T10:41:20.426Z,14.40
2018-12-12T10:43:49.672Z,16.13
2018-12-12T10:46:18.858Z,17.80
2018-12-12T10:48:48.062Z,18.10
2018-12-12T10:51:17.251Z,13.27
2018-12-12T10:53:46.437Z,14.40
2018-12-12T10:56:15.889Z,16.73
2018-12-12T10:58:45.099Z,15.33
2018-12-12T11:01:19.658Z,15.43
2018-12-12T11:03:48.946Z,12.53
2018-12-12T11:06:18.123Z,13.20
2018-12-12T11:08:47.411Z,10.53
2018-12-12T11:11:16.710Z,10.73
2018-12-12T11:13:45.030Z,12.90
2018-12-12T11:16:14.329Z,13.13
2018-12-12T11:18:43.566Z,12.43
2018-12-12T11:21:12.823Z,11.00
2018-12-12T11:23:42.142Z,13.20
2018-12-12T11:26:11.414Z,12.27
2018-12-12T11:28:40.682Z,13.07
2018-12-12T11:31:10.313Z,12.10
2018-12-12T11:33:39.750Z,11.27
2018-12-12T11:36:08.986Z,8.87
2018-12-12T11:38:38.240Z,11.30
2018-12-12T11:41:07.470Z,12.00
2018-12-12T11:43:36.738Z,9.87
2018-12-12T11:46:06.222Z,12.97
2018-12-12T11:48:35.445Z,11.00
2018-12-12T11:51:04.794Z,14.70
2018-12-12T11:53:34.007Z,11.13
2018-12-12T11:56:03.320Z,10.27
2018-12-12T11:58:32.545Z,14.63
2018-12-12T12:01:01.849Z,13.43
2018-12-12T12:03:31.078Z,20.37
2018-12-12T12:06:00.331Z,11.90
2018-12-12T12:08:29.652Z,11.77
2018-12-12T12:10:58.892Z,11.87
2018-12-12T12:13:28.141Z,10.57
2018-12-12T12:15:57.346Z,9.63
2018-12-12T12:18:26.538Z,10.97
2018-12-12T12:20:55.735Z,12.33
2018-12-12T12:23:25.103Z,13.87
2018-12-12T12:25:54.462Z,11.60
2018-12-12T12:28:23.680Z,13.57
2018-12-12T12:31:06.976Z,11.97
2018-12-12T12:33:36.274Z,12.67
2018-12-12T12:36:05.767Z,14.57
2018-12-12T12:38:35.129Z,11.73
2018-12-12T12:41:04.483Z,12.27
2018-12-12T12:43:34.417Z,13.57
2018-12-12T12:46:03.839Z,12.03
2018-12-12T12:48:33.325Z,12.57
2018-12-12T12:54:05.597Z,14.23
2018-12-12T12:56:34.988Z,16.20
2018-12-12T12:59:04.345Z,14.97
2018-12-12T13:01:33.675Z,13.60
2018-12-12T13:04:02.973Z,16.03
2018-12-12T13:06:32.299Z,14.47
2018-12-12T13:09:01.581Z,13.67
2018-12-12T13:11:31.067Z,13.60
2018-12-12T13:14:00.463Z,14.20
2018-12-12T13:16:29.948Z,15.17
2018-12-12T13:18:59.355Z,12.90
2018-12-12T13:21:28.752Z,13.63
2018-12-12T13:23:58.172Z,12.40
2018-12-12T13:26:27.546Z,14.87
2018-12-12T13:28:56.914Z,12.47
2018-12-12T13:31:26.254Z,13.43
2018-12-12T13:33:55.757Z,12.63
2018-12-12T13:36:25.305Z,12.43
2018-12-12T13:38:54.847Z,11.57
2018-12-12T13:41:24.190Z,12.07
2018-12-12T13:43:53.586Z,13.57
2018-12-12T13:46:22.913Z,14.87
2018-12-12T13:48:52.325Z,12.70
2018-12-12T13:51:21.677Z,13.23
2018-12-12T13:53:51.142Z,18.47
2018-12-12T13:56:20.545Z,14.43
2018-12-12T13:58:49.964Z,12.47
2018-12-12T14:01:19.386Z,12.30
2018-12-12T14:03:48.775Z,15.03
2018-12-12T14:06:18.166Z,10.90
2018-12-12T14:08:47.540Z,8.63
2018-12-12T14:11:16.972Z,13.30
2018-12-12T14:13:46.261Z,9.93
2018-12-12T14:16:15.537Z,10.13
2018-12-12T14:18:44.933Z,9.97
2018-12-12T14:21:14.313Z,10.07
2018-12-12T14:23:43.742Z,12.90
2018-12-12T14:26:13.013Z,13.40
2018-12-12T14:28:42.242Z,14.00
2018-12-12T14:31:11.549Z,10.90
2018-12-12T14:33:40.882Z,12.20
2018-12-12T14:36:10.603Z,14.07
2018-12-12T14:38:39.886Z,12.47
2018-12-12T14:41:09.157Z,12.03
2018-12-12T14:43:38.447Z,16.17
2018-12-12T14:46:07.848Z,14.43
2018-12-12T14:48:37.321Z,15.53
2018-12-12T14:51:06.713Z,9.53
2018-12-12T14:53:35.957Z,32.33
2018-12-12T14:56:05.682Z,40.50
2018-12-12T14:58:34.965Z,26.00
2018-12-12T15:01:04.394Z,12.87
2018-12-12T15:03:33.702Z,14.93
2018-12-12T15:06:03.128Z,17.43
2018-12-12T15:08:32.470Z,16.00
2018-12-12T15:11:01.840Z,43.60
2018-12-12T15:13:31.111Z,28.63
2018-12-12T15:16:00.428Z,41.83
2018-12-12T15:21:31.703Z,18.87
2018-12-12T15:24:01.026Z,13.60
2018-12-12T15:26:30.274Z,12.93
2018-12-12T15:28:59.683Z,16.77
2018-12-12T15:31:29.493Z,12.70
2018-12-12T15:33:59.420Z,10.47
2018-12-12T15:36:28.719Z,8.57
2018-12-12T15:38:57.989Z,9.93
2018-12-12T15:41:27.285Z,17.20
2018-12-12T15:43:56.637Z,9.17
2018-12-12T15:46:26.030Z,11.43
2018-12-12T15:48:55.349Z,7.67
2018-12-12T15:51:24.651Z,7.80
2018-12-12T15:53:53.965Z,7.80
2018-12-12T15:56:23.313Z,12.37
2018-12-12T15:58:52.612Z,11.67
2018-12-12T16:01:21.950Z,20.70
2018-12-12T16:03:51.584Z,15.73
2018-12-12T16:06:20.989Z,10.80
2018-12-12T16:08:50.399Z,11.77
2018-12-12T16:11:20.610Z,13.53
2018-12-12T16:13:49.953Z,14.90
2018-12-12T16:16:19.337Z,11.83
2018-12-12T16:18:49.343Z,21.57
2018-12-12T16:21:18.694Z,13.00
2018-12-12T16:23:48.171Z,14.53
2018-12-12T16:26:17.528Z,10.47
2018-12-12T16:28:46.911Z,9.67
2018-12-12T16:34:15.319Z,11.37
2018-12-12T16:36:46.168Z,13.13
2018-12-12T16:39:18.177Z,15.10
2018-12-12T16:41:47.744Z,13.23
2018-12-12T16:44:17.013Z,9.20
2018-12-12T16:46:46.488Z,9.00
2018-12-12T16:49:15.786Z,8.57
2018-12-12T16:51:45.080Z,7.60
2018-12-12T16:54:14.482Z,6.47
2018-12-12T16:56:43.820Z,6.17
2018-12-12T16:59:13.289Z,5.63
2018-12-12T17:01:43.438Z,5.47
2018-12-12T17:04:12.848Z,6.43
2018-12-12T17:06:42.785Z,6.93
2018-12-12T17:09:12.135Z,6.23
2018-12-12T17:11:41.541Z,5.40
2018-12-12T17:14:10.831Z,6.23
2018-12-12T17:16:40.186Z,5.73
2018-12-12T17:19:09.515Z,9.63
2018-12-12T17:21:38.861Z,8.10
2018-12-12T17:24:08.188Z,7.40
2018-12-12T17:26:37.656Z,7.67
2018-12-12T17:29:06.989Z,9.67
2018-12-12T17:31:36.381Z,7.73
2018-12-12T17:34:05.828Z,7.30
2018-12-12T17:36:35.117Z,10.50
2018-12-12T17:39:07.211Z,8.33
2018-12-12T17:41:36.576Z,10.60
2018-12-12T17:44:06.033Z,11.70
2018-12-12T17:46:35.383Z,7.90
2018-12-12T17:49:04.891Z,8.80
2018-12-12T17:51:34.271Z,8.03
2018-12-12T17:54:03.599Z,6.80
2018-12-12T17:56:32.973Z,8.40
2018-12-12T17:59:02.340Z,8.90
2018-12-12T18:01:34.757Z,6.77
2018-12-12T18:04:04.189Z,10.23
2018-12-12T18:06:33.591Z,10.07
2018-12-12T18:09:03.765Z,8.57
2018-12-12T18:11:33.079Z,7.40
2018-12-12T18:14:02.469Z,6.50
2018-12-12T18:16:31.912Z,8.40
2018-12-12T18:19:01.299Z,7.00
2018-12-12T18:21:30.617Z,5.80
2018-12-12T18:24:00.356Z,5.50
2018-12-12T18:26:29.775Z,5.87
2018-12-12T18:28:59.111Z,5.77
2018-12-12T18:31:28.433Z,4.40
2018-12-12T18:33:57.945Z,6.30
2018-12-12T18:36:27.231Z,5.23
2018-12-12T18:38:56.544Z,5.67
2018-12-12T18:41:25.889Z,4.23
2018-12-12T18:43:55.440Z,4.23
2018-12-12T18:46:24.724Z,5.37
2018-12-12T18:48:54.010Z,5.70
2018-12-12T18:51:23.325Z,5.27
2018-12-12T18:53:52.705Z,6.83
2018-12-12T18:56:22.041Z,5.73
2018-12-12T18:58:51.403Z,4.63
2018-12-12T19:01:20.867Z,4.60
2018-12-12T19:03:50.181Z,5.07
2018-12-12T19:06:20.260Z,5.33
2018-12-12T19:08:50.384Z,4.73
2018-12-12T19:11:19.849Z,5.17
2018-12-12T19:13:49.321Z,5.23
2018-12-12T19:16:18.735Z,5.50
2018-12-12T19:18:48.177Z,5.87
2018-12-12T19:21:17.550Z,4.63
2018-12-12T19:23:47.083Z,6.37
2018-12-12T19:26:16.468Z,6.03
2018-12-12T19:28:45.917Z,5.10
2018-12-12T19:31:15.259Z,6.37
2018-12-12T19:33:44.593Z,6.37
2018-12-12T19:36:14.928Z,4.83
2018-12-12T19:38:44.245Z,5.47
2018-12-12T19:41:13.639Z,5.97
2018-12-12T19:43:43.245Z,6.00
2018-12-12T19:46:13.141Z,6.87
2018-12-12T19:48:42.723Z,6.27
2018-12-12T19:51:12.159Z,6.10
2018-12-12T19:53:41.519Z,7.23
2018-12-12T19:59:11.762Z,7.13
2018-12-12T20:01:41.374Z,5.97
2018-12-12T20:04:10.683Z,6.47
2018-12-12T20:06:40.128Z,7.70
2018-12-12T20:09:09.870Z,7.07
2018-12-12T20:11:39.445Z,6.77
2018-12-12T20:14:08.815Z,7.87
2018-12-12T20:16:38.148Z,7.13
2018-12-12T20:19:10.095Z,5.83
2018-12-12T20:21:39.640Z,7.13
2018-12-12T20:24:09.105Z,6.47
2018-12-12T20:26:38.490Z,7.50
2018-12-12T20:29:07.864Z,6.53
2018-12-12T20:31:37.212Z,5.47
2018-12-12T20:34:06.732Z,5.83
2018-12-12T20:36:36.288Z,6.67
2018-12-12T20:39:08.213Z,5.53
2018-12-12T20:41:37.615Z,5.50
2018-12-12T20:44:07.207Z,6.47
2018-12-12T20:46:36.499Z,7.23
2018-12-12T20:49:05.907Z,5.60
2018-12-12T20:51:35.238Z,5.67
2018-12-12T20:54:05.259Z,6.43
2018-12-12T20:56:34.638Z,7.90
2018-12-12T20:59:04.212Z,6.57
2018-12-12T21:01:33.625Z,6.60
2018-12-12T21:04:03.035Z,7.37
2018-12-12T21:09:30.234Z,9.53
2018-12-12T21:11:59.940Z,7.60
2018-12-12T21:14:29.371Z,7.87
2018-12-12T21:16:58.875Z,7.97
2018-12-12T21:19:28.276Z,8.63
2018-12-12T21:21:57.693Z,8.40
2018-12-12T21:24:27.219Z,7.53
2018-12-12T21:26:56.625Z,7.43
2018-12-12T21:29:25.964Z,7.63
2018-12-12T21:31:55.464Z,7.60
2018-12-12T21:34:24.961Z,9.43
2018-12-12T21:36:54.325Z,7.97
2018-12-12T21:39:23.668Z,7.53
2018-12-12T21:41:53.014Z,9.23
2018-12-12T21:44:22.396Z,7.30
2018-12-12T21:46:51.858Z,8.10
2018-12-12T21:49:21.281Z,7.37
2018-12-12T21:51:50.679Z,6.77
2018-12-12T21:54:20.033Z,7.70
2018-12-12T21:56:49.406Z,8.70
2018-12-12T21:59:18.771Z,9.50
2018-12-12T22:01:48.110Z,9.20
2018-12-12T22:04:17.550Z,9.03
2018-12-12T22:09:49.733Z,10.00
2018-12-12T22:12:19.170Z,8.67
2018-12-12T22:14:48.486Z,9.17
2018-12-12T22:17:17.841Z,11.70
2018-12-12T22:19:47.236Z,9.23
2018-12-12T22:22:16.614Z,9.13
2018-12-12T22:24:46.020Z,9.93
2018-12-12T22:27:15.536Z,11.17
2018-12-12T22:29:44.837Z,9.97
2018-12-12T22:32:14.425Z,9.83
2018-12-12T22:34:43.740Z,10.03
2018-12-12T22:37:13.225Z,10.13
2018-12-12T22:39:57.677Z,11.10
2018-12-12T22:42:27.184Z,11.33
2018-12-12T22:44:56.545Z,10.30
2018-12-12T22:47:25.939Z,10.83
2018-12-12T22:49:55.309Z,11.27
2018-12-12T22:52:24.730Z,11.03
2018-12-12T22:57:56.037Z,12.57
2018-12-12T23:00:30.635Z,10.87
2018-12-12T23:03:00.184Z,10.93
2018-12-12T23:05:29.676Z,12.83
2018-12-12T23:07:59.272Z,10.67
2018-12-12T23:10:28.740Z,12.57
2018-12-12T23:12:58.309Z,9.23
2018-12-12T23:15:27.712Z,10.87
2018-12-12T23:17:57.145Z,11.93
2018-12-12T23:20:26.466Z,10.40
2018-12-12T23:22:55.882Z,10.50
2018-12-12T23:25:25.230Z,11.03
2018-12-12T23:27:54.515Z,11.53
2018-12-12T23:30:23.987Z,12.03
2018-12-12T23:32:53.293Z,11.77
2018-12-12T23:35:22.882Z,10.80
2018-12-12T23:37:52.282Z,10.97
2018-12-12T23:40:22.058Z,9.83
2018-12-12T23:42:51.425Z,10.57
2018-12-12T23:45:20.774Z,10.83
2018-12-12T23:47:50.190Z,11.53
2018-12-12T23:50:19.791Z,9.90
2018-12-12T23:52:49.138Z,11.40
2018-12-12T23:55:18.496Z,11.77
2018-12-12T23:57:47.783Z,14.17
